EHDL

Deelen Air Base

Airport
ICAO code
EHDL
IATA Code
QAR
Summary
ICAO Region
EUR
ICAO Territory
Location

Deelen, Gelderland

Serving
Deelen
Elevation
158 ft
Coordinates
52° 3' 38" N , 5° 52' 23" E
KCC
Cfb
Metar
Observation
EHDL 081525Z AUTO 02009KT 310V060 9999 OVC055 22/13 Q1026 BLU
Station
Deelen
Date/Time
2022-08-08 15:25:00
Wind direction
20°
Wind speed
09 kts
Lowest cloud amount
overcast
Temperature
22°C
Dew point
13°C
Humidity
56%
QNH
1026 hPa
Weather condition
n/a

Deelen Air Base is a military air base in the Netherlands in the province of Gelderland. Though once an active air base, it is now mostly used as a helicopter training site.

Climatology

Temperate Marine climate/Oceanic climate (Köppen climate classification Cfb). Moderately cool summer and comparatively warm winter with a temperature range of only 14°C. Prevailing south-westerly winds from the Atlantic Ocean.

Runways

Designator Length Width Surface Rops
2/20 2950 50 PEM No/No

Airport map

Aerial View

SKYbrary Partners:

Safety knowledge contributed by: